createdAt,value
2022-09-25T00:01:42.806Z,25.05
2022-09-25T00:04:09.515Z,30.33
2022-09-25T00:06:36.286Z,27.90
2022-09-25T00:09:05.129Z,26.80
2022-09-25T00:11:33.968Z,31.38
2022-09-25T00:14:01.905Z,29.65
2022-09-25T00:16:30.786Z,33.38
2022-09-25T00:19:14.018Z,32.85
2022-09-25T00:21:41.333Z,38.53
2022-09-25T00:24:09.991Z,37.70
2022-09-25T00:26:40.441Z,35.60
2022-09-25T00:29:08.766Z,34.90
2022-09-25T00:31:35.604Z,37.53
2022-09-25T00:34:05.106Z,30.10
2022-09-25T00:36:32.448Z,34.15
2022-09-25T00:39:00.078Z,45.13
2022-09-25T00:41:28.217Z,38.53
2022-09-25T00:43:57.212Z,35.50
2022-09-25T00:46:23.842Z,36.38
2022-09-25T00:48:56.249Z,35.90
2022-09-25T00:51:29.650Z,35.13
2022-09-25T00:54:01.573Z,36.80
2022-09-25T00:56:31.850Z,32.40
2022-09-25T00:58:58.850Z,37.90
2022-09-25T01:01:25.627Z,31.10
2022-09-25T01:03:52.483Z,38.95
2022-09-25T01:06:19.720Z,32.70
2022-09-25T01:08:47.182Z,38.72
2022-09-25T01:11:13.839Z,35.97
2022-09-25T01:13:40.618Z,37.65
2022-09-25T01:16:24.169Z,39.80
2022-09-25T01:19:14.483Z,37.25
2022-09-25T01:22:11.630Z,34.83
2022-09-25T01:24:55.258Z,35.30
2022-09-25T01:27:33.018Z,36.97
2022-09-25T01:30:06.018Z,36.58
2022-09-25T01:32:44.850Z,39.33
2022-09-25T01:35:12.439Z,34.90
2022-09-25T01:38:00.952Z,42.30
2022-09-25T01:40:33.736Z,36.67
2022-09-25T01:43:01.635Z,40.75
2022-09-25T01:45:36.598Z,39.78
2022-09-25T01:48:06.153Z,37.80
2022-09-25T01:50:47.121Z,39.35
2022-09-25T01:53:24.778Z,44.97
2022-09-25T01:55:59.394Z,39.95
2022-09-25T01:58:32.546Z,40.03
2022-09-25T02:01:06.370Z,37.83
2022-09-25T02:03:39.918Z,47.40
2022-09-25T02:06:10.145Z,45.17
2022-09-25T02:08:44.134Z,43.05
2022-09-25T02:11:12.216Z,38.83
2022-09-25T02:13:58.172Z,40.58
2022-09-25T02:16:35.539Z,46.83
2022-09-25T02:19:18.102Z,44.50
2022-09-25T02:21:52.636Z,44.70
2022-09-25T02:24:25.179Z,41.53
2022-09-25T02:26:52.454Z,38.72
2022-09-25T02:29:20.260Z,42.65
2022-09-25T02:31:53.944Z,47.95
2022-09-25T02:34:22.061Z,42.40
2022-09-25T02:36:48.718Z,43.63
2022-09-25T02:39:20.732Z,46.90
2022-09-25T02:42:06.754Z,42.95
2022-09-25T02:44:54.327Z,51.47
2022-09-25T02:47:39.828Z,43.75
2022-09-25T02:50:07.408Z,43.15
2022-09-25T02:52:46.893Z,49.03
2022-09-25T02:55:14.506Z,54.90
2022-09-25T02:57:51.606Z,44.10
2022-09-25T03:00:22.832Z,50.90
2022-09-25T03:02:53.725Z,45.53
2022-09-25T03:05:21.430Z,45.92
2022-09-25T03:08:03.391Z,42.03
2022-09-25T03:10:33.897Z,46.63
2022-09-25T03:13:17.581Z,54.60
2022-09-25T03:15:47.091Z,50.20
2022-09-25T03:18:14.787Z,41.40
2022-09-25T03:20:41.431Z,50.95
2022-09-25T03:23:08.009Z,47.25
2022-09-25T03:25:34.705Z,47.95
2022-09-25T03:28:01.503Z,44.78
2022-09-25T03:30:29.387Z,43.95
2022-09-25T03:32:56.236Z,46.67
2022-09-25T03:35:23.068Z,53.28
2022-09-25T03:37:49.746Z,48.38
2022-09-25T03:40:16.434Z,46.20
2022-09-25T03:42:44.064Z,41.22
2022-09-25T03:45:11.517Z,50.45
2022-09-25T03:47:38.435Z,48.95
2022-09-25T03:50:05.448Z,50.17
2022-09-25T03:52:32.051Z,49.28
2022-09-25T03:54:58.675Z,51.00
2022-09-25T03:57:25.928Z,50.55
2022-09-25T03:59:52.769Z,56.00
2022-09-25T04:02:19.665Z,49.05
2022-09-25T04:04:46.502Z,48.47
2022-09-25T04:07:13.356Z,49.08
2022-09-25T04:09:40.139Z,44.05
2022-09-25T04:12:07.440Z,48.53
2022-09-25T04:14:34.049Z,49.20
2022-09-25T04:17:00.715Z,43.90
2022-09-25T04:19:27.309Z,48.00
2022-09-25T04:21:53.921Z,41.63
2022-09-25T04:24:35.753Z,48.10
2022-09-25T04:27:02.359Z,47.95
2022-09-25T04:29:29.093Z,55.55
2022-09-25T04:32:12.061Z,51.88
2022-09-25T04:34:38.690Z,57.55
2022-09-25T04:37:05.315Z,55.45
2022-09-25T04:39:31.966Z,56.70
2022-09-25T04:41:58.613Z,51.05
2022-09-25T04:44:25.222Z,52.85
2022-09-25T04:46:52.551Z,46.53
2022-09-25T04:49:19.264Z,58.53
2022-09-25T04:51:45.926Z,55.85
2022-09-25T04:54:14.890Z,53.45
2022-09-25T04:56:43.389Z,56.35
2022-09-25T04:59:11.831Z,51.28
2022-09-25T05:01:39.021Z,46.70
2022-09-25T05:04:08.680Z,49.25
2022-09-25T05:06:35.650Z,47.10
2022-09-25T05:09:03.221Z,50.75
2022-09-25T05:11:29.917Z,40.92
2022-09-25T05:13:56.502Z,50.70
2022-09-25T05:16:23.155Z,48.58
2022-09-25T05:18:49.824Z,46.42
2022-09-25T05:21:16.458Z,50.67
2022-09-25T05:23:43.053Z,53.97
2022-09-25T05:26:10.969Z,66.57
2022-09-25T05:28:37.655Z,65.47
2022-09-25T05:31:05.568Z,52.75
2022-09-25T05:33:33.951Z,53.33
2022-09-25T05:36:02.704Z,52.28
2022-09-25T05:38:31.441Z,58.88
2022-09-25T05:41:03.581Z,55.53
2022-09-25T05:43:31.428Z,57.65
2022-09-25T05:45:58.840Z,56.00
2022-09-25T05:48:26.069Z,53.78
2022-09-25T05:50:57.348Z,57.78
2022-09-25T05:53:28.312Z,53.45
2022-09-25T05:55:58.319Z,51.63
2022-09-25T05:58:26.814Z,56.47
2022-09-25T06:00:54.991Z,53.47
2022-09-25T06:03:22.211Z,58.60
2022-09-25T06:05:48.959Z,55.42
2022-09-25T06:08:15.582Z,54.25
2022-09-25T06:10:42.668Z,55.78
2022-09-25T06:13:09.327Z,53.55
2022-09-25T06:15:38.598Z,58.08
2022-09-25T06:18:06.058Z,57.60
2022-09-25T06:20:33.205Z,53.47
2022-09-25T06:23:01.375Z,56.47
2022-09-25T06:25:30.590Z,52.63
2022-09-25T06:28:00.705Z,52.42
2022-09-25T06:30:34.507Z,56.00
2022-09-25T06:33:02.030Z,51.83
2022-09-25T06:35:29.485Z,58.95
2022-09-25T06:37:58.760Z,62.50
2022-09-25T06:40:29.181Z,67.28
2022-09-25T06:42:57.378Z,54.47
2022-09-25T06:45:25.437Z,59.25
2022-09-25T06:47:52.334Z,50.17
2022-09-25T06:50:18.951Z,52.40
2022-09-25T06:52:45.553Z,48.10
2022-09-25T06:55:12.139Z,47.63
2022-09-25T06:57:38.799Z,52.50
2022-09-25T07:00:06.420Z,51.83
2022-09-25T07:02:48.585Z,59.35
2022-09-25T07:05:18.722Z,52.47
2022-09-25T07:07:46.437Z,51.45
2022-09-25T07:10:13.103Z,54.33
2022-09-25T07:12:41.441Z,60.28
2022-09-25T07:15:08.830Z,53.88
2022-09-25T07:17:35.444Z,52.47
2022-09-25T07:20:02.550Z,57.00
2022-09-25T07:22:30.407Z,55.38
2022-09-25T07:24:57.044Z,49.55
2022-09-25T07:27:23.645Z,48.00
2022-09-25T07:29:51.849Z,47.17
2022-09-25T07:32:18.502Z,43.92
2022-09-25T07:34:45.138Z,50.88
2022-09-25T07:37:12.455Z,45.80
2022-09-25T07:39:39.062Z,42.03
2022-09-25T07:42:06.895Z,43.30
2022-09-25T07:44:38.010Z,41.72
2022-09-25T07:47:07.308Z,37.08
2022-09-25T07:49:35.033Z,39.60
2022-09-25T07:52:02.337Z,42.33
2022-09-25T07:54:28.923Z,46.28
2022-09-25T07:56:55.682Z,46.33
2022-09-25T07:59:22.275Z,45.45
2022-09-25T08:01:53.651Z,41.13
2022-09-25T08:04:20.513Z,45.30
2022-09-25T08:06:47.108Z,41.00
2022-09-25T08:09:13.702Z,45.63
2022-09-25T08:11:40.509Z,41.60
2022-09-25T08:14:07.210Z,44.38
2022-09-25T08:16:33.973Z,42.30
2022-09-25T08:19:01.741Z,46.40
2022-09-25T08:21:28.323Z,46.13
2022-09-25T08:23:56.514Z,38.55
2022-09-25T08:26:23.843Z,36.47
2022-09-25T08:28:51.844Z,35.40
2022-09-25T08:31:18.548Z,33.70
2022-09-25T08:33:46.841Z,26.67
2022-09-25T08:36:13.864Z,28.20
2022-09-25T08:38:40.695Z,27.20
2022-09-25T08:41:22.203Z,24.92
2022-09-25T08:44:19.843Z,28.63
2022-09-25T08:47:06.943Z,25.23
2022-09-25T08:49:40.032Z,24.80
2022-09-25T08:52:13.658Z,27.00
2022-09-25T08:54:43.410Z,24.85
2022-09-25T08:57:21.339Z,25.58
2022-09-25T08:59:59.788Z,25.10
2022-09-25T09:02:38.616Z,27.88
2022-09-25T09:05:14.525Z,24.38
2022-09-25T09:07:46.373Z,30.55
2022-09-25T09:10:43.377Z,22.63
2022-09-25T09:13:36.881Z,30.25
2022-09-25T09:16:08.471Z,24.92
2022-09-25T09:18:40.612Z,29.40
2022-09-25T09:21:12.714Z,21.70
2022-09-25T09:23:53.594Z,26.08
2022-09-25T09:26:23.196Z,24.90
2022-09-25T09:29:09.678Z,26.40
2022-09-25T09:31:52.471Z,27.42
2022-09-25T09:35:04.249Z,29.00
2022-09-25T09:37:49.976Z,26.17
2022-09-25T09:40:40.995Z,27.33
2022-09-25T09:43:23.184Z,30.95
2022-09-25T09:45:59.008Z,31.08
2022-09-25T09:48:34.633Z,26.75
2022-09-25T09:51:14.447Z,32.20
2022-09-25T09:53:53.176Z,25.95
2022-09-25T09:56:35.927Z,25.05
2022-09-25T09:59:20.852Z,23.77
2022-09-25T10:02:00.811Z,23.52
2022-09-25T10:04:34.253Z,26.27
2022-09-25T10:07:09.812Z,29.15
2022-09-25T10:09:37.435Z,25.80
2022-09-25T10:12:12.390Z,25.02
2022-09-25T10:14:44.784Z,23.58
2022-09-25T10:17:12.069Z,23.75
2022-09-25T10:19:49.021Z,24.08
2022-09-25T10:22:19.367Z,28.15
2022-09-25T10:25:02.511Z,23.75
2022-09-25T10:27:36.932Z,25.08
2022-09-25T10:30:16.278Z,28.23
2022-09-25T10:33:04.184Z,25.80
2022-09-25T10:35:43.413Z,26.10
2022-09-25T10:38:28.545Z,25.40
2022-09-25T10:41:00.342Z,27.77
2022-09-25T10:43:26.973Z,27.85
2022-09-25T10:46:12.550Z,27.83
2022-09-25T10:48:55.754Z,27.90
2022-09-25T10:51:23.526Z,22.00
2022-09-25T10:53:53.216Z,26.30
2022-09-25T10:56:22.840Z,20.95
2022-09-25T10:58:55.769Z,25.27
2022-09-25T11:01:35.405Z,21.15
2022-09-25T11:04:12.204Z,21.58
2022-09-25T11:06:45.793Z,20.60
2022-09-25T11:09:16.438Z,26.00
2022-09-25T11:11:46.053Z,20.42
2022-09-25T11:14:32.799Z,21.63
2022-09-25T11:17:02.151Z,19.70
2022-09-25T11:19:35.567Z,20.25
2022-09-25T11:22:07.964Z,20.98
2022-09-25T11:25:00.861Z,21.85
2022-09-25T11:27:42.897Z,23.73
2022-09-25T11:30:12.476Z,18.67
2022-09-25T11:33:01.748Z,21.55
2022-09-25T11:35:44.803Z,19.38
2022-09-25T11:38:42.250Z,19.10
2022-09-25T11:41:22.971Z,19.63
2022-09-25T11:44:06.138Z,18.08
2022-09-25T11:46:35.589Z,17.95
2022-09-25T11:49:16.216Z,14.57
2022-09-25T11:52:16.475Z,16.88
2022-09-25T11:55:14.858Z,14.52
2022-09-25T11:58:02.372Z,15.75
2022-09-25T12:00:51.756Z,14.35
2022-09-25T12:03:51.181Z,16.45
2022-09-25T12:06:32.542Z,15.85
2022-09-25T12:09:29.588Z,17.05
2022-09-25T12:12:11.587Z,14.20
2022-09-25T12:14:45.716Z,14.32
2022-09-25T12:17:33.418Z,15.77
2022-09-25T12:20:11.634Z,12.27
2022-09-25T12:23:00.230Z,15.93
2022-09-25T12:25:57.685Z,14.10
2022-09-25T12:28:41.614Z,18.98
2022-09-25T12:31:17.527Z,19.27
2022-09-25T12:34:00.351Z,13.88
2022-09-25T12:36:36.623Z,24.52
2022-09-25T12:39:14.131Z,17.17
2022-09-25T12:41:52.112Z,15.18
2022-09-25T12:44:20.491Z,14.65
2022-09-25T12:47:01.938Z,11.82
2022-09-25T12:49:40.364Z,14.40
2022-09-25T12:52:14.661Z,18.88
2022-09-25T12:54:52.154Z,14.95
2022-09-25T12:57:28.046Z,17.92
2022-09-25T13:00:03.880Z,18.90
2022-09-25T13:02:43.922Z,16.88
2022-09-25T13:05:21.700Z,17.73
2022-09-25T13:08:03.311Z,13.32
2022-09-25T13:10:37.107Z,14.27
2022-09-25T13:13:12.899Z,15.10
2022-09-25T13:15:42.479Z,16.27
2022-09-25T13:18:17.490Z,15.95
2022-09-25T13:20:49.663Z,14.55
2022-09-25T13:23:33.855Z,15.32
2022-09-25T13:26:09.009Z,18.23
2022-09-25T13:28:40.533Z,20.67
2022-09-25T13:31:23.835Z,19.60
2022-09-25T13:33:52.581Z,17.73
2022-09-25T13:36:47.645Z,20.33
2022-09-25T13:39:32.933Z,15.07
2022-09-25T13:42:07.893Z,17.70
2022-09-25T13:44:52.540Z,19.35
2022-09-25T13:47:34.141Z,17.23
2022-09-25T13:50:19.176Z,18.15
2022-09-25T13:53:08.918Z,15.43
2022-09-25T13:56:02.850Z,14.60
2022-09-25T13:58:51.519Z,19.55
2022-09-25T14:01:35.597Z,16.90
2022-09-25T14:04:10.216Z,14.40
2022-09-25T14:06:42.055Z,13.63
2022-09-25T14:09:12.773Z,14.75
2022-09-25T14:11:43.227Z,12.38
2022-09-25T14:14:15.876Z,15.23
2022-09-25T14:16:49.401Z,14.43
2022-09-25T14:19:34.798Z,23.08
2022-09-25T14:22:04.482Z,15.80
2022-09-25T14:24:32.016Z,19.05
2022-09-25T14:27:01.643Z,18.23
2022-09-25T14:29:38.953Z,23.15
2022-09-25T14:32:53.507Z,16.10
2022-09-25T14:35:12.046Z,14.98
2022-09-25T14:37:56.663Z,21.95
2022-09-25T14:40:33.963Z,15.45
2022-09-25T14:43:20.507Z,18.13
2022-09-25T14:46:04.461Z,16.23
2022-09-25T14:48:39.419Z,15.38
2022-09-25T14:51:11.067Z,14.45
2022-09-25T14:53:42.626Z,20.08
2022-09-25T14:56:14.810Z,20.00
2022-09-25T14:58:47.088Z,22.20
2022-09-25T15:01:23.042Z,14.70
2022-09-25T15:03:50.215Z,17.90
2022-09-25T15:06:26.200Z,17.77
2022-09-25T15:08:53.048Z,19.45
2022-09-25T15:11:21.749Z,16.70
2022-09-25T15:13:48.689Z,15.10
2022-09-25T15:16:36.590Z,17.35
2022-09-25T15:19:11.584Z,23.55
2022-09-25T15:21:42.665Z,19.60
2022-09-25T15:24:24.508Z,15.68
2022-09-25T15:27:02.648Z,14.90
2022-09-25T15:29:33.466Z,15.48
2022-09-25T15:32:00.699Z,16.40
2022-09-25T15:34:30.225Z,21.58
2022-09-25T15:37:29.176Z,15.68
2022-09-25T15:39:56.542Z,18.10
2022-09-25T15:42:23.203Z,17.27
2022-09-25T15:44:50.069Z,14.13
2022-09-25T15:47:50.492Z,13.02
2022-09-25T15:50:23.876Z,18.42
2022-09-25T15:52:54.010Z,18.80
2022-09-25T15:55:21.397Z,16.13
2022-09-25T15:57:51.262Z,22.20
2022-09-25T16:00:36.510Z,20.92
2022-09-25T16:03:30.119Z,16.48
2022-09-25T16:05:56.780Z,13.75
2022-09-25T16:08:24.398Z,18.00
2022-09-25T16:11:12.747Z,16.75
2022-09-25T16:13:43.617Z,16.75
2022-09-25T16:16:29.571Z,18.10
2022-09-25T16:18:59.054Z,16.58
2022-09-25T16:21:25.863Z,13.65
2022-09-25T16:23:58.623Z,18.30
2022-09-25T16:26:36.270Z,16.55
2022-09-25T16:29:20.753Z,18.33
2022-09-25T16:31:48.056Z,18.98
2022-09-25T16:34:25.861Z,15.25
2022-09-25T16:36:55.719Z,16.52
2022-09-25T16:39:24.758Z,18.60
2022-09-25T16:41:51.945Z,16.92
2022-09-25T16:44:18.560Z,19.17
2022-09-25T16:47:07.687Z,17.65
2022-09-25T16:49:34.625Z,21.27
2022-09-25T16:52:05.522Z,19.08
2022-09-25T16:54:33.352Z,17.52
2022-09-25T16:57:02.296Z,19.35
2022-09-25T16:59:29.190Z,16.90
2022-09-25T17:01:59.436Z,16.40
2022-09-25T17:04:28.486Z,18.88
2022-09-25T17:06:58.045Z,13.65
2022-09-25T17:09:26.213Z,15.27
2022-09-25T17:11:59.345Z,13.07
2022-09-25T17:14:28.675Z,15.82
2022-09-25T17:16:56.552Z,17.35
2022-09-25T17:19:23.928Z,13.25
2022-09-25T17:21:53.080Z,13.75
2022-09-25T17:24:23.824Z,16.33
2022-09-25T17:26:51.992Z,18.38
2022-09-25T17:29:20.028Z,15.23
2022-09-25T17:31:46.734Z,13.65
2022-09-25T17:34:19.836Z,12.43
2022-09-25T17:36:46.642Z,12.10
2022-09-25T17:39:13.623Z,18.77
2022-09-25T17:41:40.543Z,23.63
2022-09-25T17:44:11.342Z,23.00
2022-09-25T17:46:38.896Z,26.90
2022-09-25T17:49:05.995Z,24.05
2022-09-25T17:51:34.395Z,24.67
2022-09-25T17:54:02.766Z,28.67
2022-09-25T17:56:34.692Z,31.30
2022-09-25T17:59:02.403Z,24.30
2022-09-25T18:01:35.354Z,23.95
2022-09-25T18:04:20.228Z,29.23
2022-09-25T18:06:47.483Z,22.20
2022-09-25T18:09:14.238Z,19.58
2022-09-25T18:11:43.535Z,16.65
2022-09-25T18:14:12.533Z,19.60
2022-09-25T18:16:41.623Z,16.70
2022-09-25T18:19:30.866Z,16.42
2022-09-25T18:22:12.653Z,17.30
2022-09-25T18:24:40.005Z,25.00
2022-09-25T18:27:06.687Z,26.23
2022-09-25T18:29:36.266Z,29.50
2022-09-25T18:32:03.087Z,27.23
2022-09-25T18:34:29.793Z,24.48
2022-09-25T18:36:56.426Z,29.05
2022-09-25T18:39:23.209Z,29.23
2022-09-25T18:41:50.615Z,25.85
2022-09-25T18:44:18.052Z,26.30
2022-09-25T18:46:45.073Z,27.85
2022-09-25T18:49:11.947Z,34.78
2022-09-25T18:51:38.727Z,32.58
2022-09-25T18:54:05.873Z,28.33
2022-09-25T18:56:34.643Z,31.00
2022-09-25T18:59:05.571Z,35.13
2022-09-25T19:01:33.131Z,37.80
2022-09-25T19:03:59.837Z,38.25
2022-09-25T19:06:26.521Z,47.40
2022-09-25T19:08:55.934Z,49.53
2022-09-25T19:11:24.887Z,56.15
2022-09-25T19:13:51.735Z,56.55
2022-09-25T19:16:20.361Z,54.42
2022-09-25T19:18:47.389Z,120.88
2022-09-25T19:21:16.310Z,59.58
2022-09-25T19:23:43.666Z,53.63
2022-09-25T19:26:15.077Z,52.08
2022-09-25T19:28:41.942Z,54.78
2022-09-25T19:31:15.621Z,53.47
2022-09-25T19:33:42.644Z,44.85
2022-09-25T19:36:15.454Z,45.38
2022-09-25T19:38:43.437Z,46.85
2022-09-25T19:41:13.226Z,49.58
2022-09-25T19:43:39.915Z,45.88
2022-09-25T19:46:06.861Z,45.47
2022-09-25T19:48:33.858Z,47.80
2022-09-25T19:51:06.541Z,50.53
2022-09-25T19:53:34.427Z,49.53
2022-09-25T19:56:01.435Z,47.40
2022-09-25T19:58:28.559Z,45.85
2022-09-25T20:00:56.886Z,49.50
2022-09-25T20:03:23.873Z,49.30
2022-09-25T20:05:50.820Z,49.70
2022-09-25T20:08:17.537Z,45.80
2022-09-25T20:10:44.723Z,49.95
2022-09-25T20:13:11.769Z,49.00
2022-09-25T20:15:38.519Z,50.85
2022-09-25T20:18:05.498Z,47.67
2022-09-25T20:20:32.169Z,49.90
2022-09-25T20:22:59.084Z,51.92
2022-09-25T20:25:28.053Z,48.25
2022-09-25T20:27:55.212Z,54.58
2022-09-25T20:30:24.366Z,52.42
2022-09-25T20:32:51.958Z,52.20
2022-09-25T20:35:22.512Z,59.65
2022-09-25T20:37:49.141Z,52.13
2022-09-25T20:40:15.994Z,58.33
2022-09-25T20:42:42.993Z,53.97
2022-09-25T20:45:10.516Z,55.78
2022-09-25T20:47:45.113Z,50.58
2022-09-25T20:50:13.007Z,50.97
2022-09-25T20:52:40.006Z,48.05
2022-09-25T20:55:07.213Z,50.50
2022-09-25T20:57:34.022Z,50.67
2022-09-25T21:00:02.150Z,53.38
2022-09-25T21:02:29.459Z,53.50
2022-09-25T21:04:57.043Z,52.60
2022-09-25T21:07:25.596Z,54.50
2022-09-25T21:09:53.784Z,53.67
2022-09-25T21:12:21.493Z,47.67
2022-09-25T21:14:49.354Z,51.40
2022-09-25T21:17:17.145Z,53.33
2022-09-25T21:19:44.186Z,38.30
2022-09-25T21:22:11.088Z,30.88
2022-09-25T21:24:37.930Z,30.60
2022-09-25T21:27:04.570Z,28.77
2022-09-25T21:29:32.026Z,31.42
2022-09-25T21:31:58.823Z,39.58
2022-09-25T21:34:26.542Z,33.45
2022-09-25T21:36:53.185Z,41.47
2022-09-25T21:39:21.181Z,50.60
2022-09-25T21:41:48.497Z,50.67
2022-09-25T21:44:20.461Z,55.15
2022-09-25T21:46:47.122Z,50.00
2022-09-25T21:49:17.257Z,46.85
2022-09-25T21:51:45.639Z,36.00
2022-09-25T21:54:16.687Z,37.78
2022-09-25T21:56:48.701Z,31.75
2022-09-25T21:59:15.621Z,28.83
2022-09-25T22:01:42.972Z,24.52
2022-09-25T22:04:13.482Z,26.92
2022-09-25T22:06:44.466Z,23.52
2022-09-25T22:09:15.463Z,20.83
2022-09-25T22:11:43.388Z,19.38
2022-09-25T22:14:15.520Z,18.52
2022-09-25T22:16:44.521Z,16.05
2022-09-25T22:19:30.744Z,13.27
2022-09-25T22:21:59.348Z,13.80
2022-09-25T22:24:26.715Z,18.38
2022-09-25T22:26:54.699Z,12.27
2022-09-25T22:29:21.715Z,11.50
2022-09-25T22:31:48.475Z,11.65
2022-09-25T22:34:18.029Z,9.73
2022-09-25T22:36:45.026Z,16.65
2022-09-25T22:39:14.421Z,13.20
2022-09-25T22:41:41.623Z,13.45
2022-09-25T22:44:08.265Z,16.13
2022-09-25T22:46:35.020Z,13.50
2022-09-25T22:49:02.825Z,14.95
2022-09-25T22:51:29.637Z,18.75
2022-09-25T22:53:56.356Z,17.50
2022-09-25T22:56:24.820Z,12.75
2022-09-25T22:58:56.950Z,14.68
2022-09-25T23:01:26.419Z,13.93
2022-09-25T23:03:55.321Z,16.30
2022-09-25T23:06:22.651Z,16.52
2022-09-25T23:08:54.942Z,13.35
2022-09-25T23:11:22.332Z,16.05
2022-09-25T23:13:50.668Z,11.40
2022-09-25T23:16:18.504Z,11.45
2022-09-25T23:18:45.260Z,14.60
2022-09-25T23:21:11.881Z,14.75
2022-09-25T23:23:38.698Z,14.82
2022-09-25T23:26:07.189Z,14.73
2022-09-25T23:28:36.502Z,13.13
2022-09-25T23:31:08.337Z,13.07
2022-09-25T23:33:36.097Z,14.93
2022-09-25T23:36:06.301Z,10.98
2022-09-25T23:38:34.070Z,14.73
2022-09-25T23:41:01.080Z,11.90
2022-09-25T23:43:28.004Z,16.10
2022-09-25T23:45:55.755Z,18.60
2022-09-25T23:48:22.788Z,15.27
2022-09-25T23:50:51.287Z,18.30
2022-09-25T23:53:18.082Z,17.10
2022-09-25T23:55:44.743Z,14.23
2022-09-25T23:58:11.414Z,20.23
